Terminal Aerodrome Forecast
Issued by NWS Missoula, MT

Home | Current Version | Previous Version | Text Only | Print | Product List | Glossary On
Versions: 1 2 3 4 5 6 7 8 9 10 11 12 13 14 15 16 17
000
FTUS45 KMSO 201800 AAB
TAFBTM
TAF AMD
KBTM 201850Z 2019/2118 31009KT P6SM VCTS BKN050CB
     FM202100 29009KT P6SM VCSH BKN090
     FM210400 15006KT P6SM OVC100=

USA.gov is the U.S. government's official web portal to all federal, state and local government web resources and services.